Time;durP1;ratioP1;P1;durP2;ratioP2;P2;SDS_P1;SDS_P2;PMS_P1;PMS_P2;Temp;Humidity;BMP_temperature;BMP_pressure;BME280_temperature;BME280_humidity;BME280_pressure;Samples;Min_cycle;Max_cycle;Signal;HPM_P1;HPM_P2
2023/01/10 00:00:58;;;;;;;2.15;0.70;;;25.50;99.90;;;;;;5022901;28;20293;-85
2023/01/10 00:03:29;;;;;;;1.90;0.80;;;25.50;99.90;;;;;;5022542;28;20243;-85
2023/01/10 00:06:00;;;;;;;2.45;0.70;;;25.50;99.90;;;;;;5024134;28;20411;-84
2023/01/10 00:08:35;;;;;;;1.85;0.70;;;25.50;99.90;;;;;;5039328;28;20703;-84
2023/01/10 00:13:22;;;;;;;3.65;0.88;;;25.50;99.90;;;;;;5053143;28;20193;-85
2023/01/10 00:13:57;;;;;;;4.03;0.60;;;25.60;99.90;;;;;;5045479;28;20242;-85
2023/01/10 00:16:28;;;;;;;3.38;0.73;;;25.70;99.90;;;;;;5054169;28;20283;-85
2023/01/10 00:18:58;;;;;;;2.67;0.50;;;25.70;99.90;;;;;;5046808;28;20193;-88
2023/01/10 00:21:30;;;;;;;2.00;0.60;;;25.70;99.90;;;;;;5048937;28;20189;-86
2023/01/10 00:24:15;;;;;;;3.75;1.00;;;25.80;99.90;;;;;;5056863;28;20633;-86
2023/01/10 00:26:50;;;;;;;4.40;0.60;;;25.80;99.90;;;;;;5061763;28;20241;-88
2023/01/10 00:29:22;;;;;;;3.88;0.95;;;25.90;99.90;;;;;;5041592;28;20231;-87
2023/01/10 00:31:53;;;;;;;1.75;0.70;;;25.80;99.90;;;;;;5039431;28;20245;-89
2023/01/10 00:34:25;;;;;;;4.13;0.80;;;25.80;99.90;;;;;;5052891;28;20288;-89
2023/01/10 00:36:57;;;;;;;1.23;0.60;;;25.80;99.90;;;;;;5052720;28;20556;-89
2023/01/10 00:39:30;;;;;;;2.08;0.77;;;25.90;99.90;;;;;;5047154;28;20300;-91
2023/01/10 00:44:47;;;;;;;2.67;0.70;;;26.00;99.90;;;;;;5041293;28;20677;-88
2023/01/10 00:47:18;;;;;;;4.22;1.00;;;26.00;99.90;;;;;;5048571;28;20218;-87
2023/01/10 00:49:49;;;;;;;2.58;1.00;;;26.00;99.90;;;;;;5043648;28;20274;-91
2023/01/10 00:52:20;;;;;;;1.42;0.70;;;26.00;99.90;;;;;;5045302;28;20636;-91
2023/01/10 00:54:55;;;;;;;1.83;0.65;;;26.00;99.90;;;;;;5056618;28;21663;-90
2023/01/10 00:57:26;;;;;;;1.67;0.65;;;26.00;99.90;;;;;;5058290;28;20263;-88
2023/01/10 00:59:57;;;;;;;1.33;0.57;;;26.10;99.90;;;;;;5063346;28;20212;-87
2023/01/10 01:02:28;;;;;;;2.50;0.60;;;26.00;99.90;;;;;;5051707;28;20197;-88
2023/01/10 01:04:59;;;;;;;1.85;0.68;;;25.80;99.90;;;;;;5049549;28;20216;-88
2023/01/10 01:07:29;;;;;;;3.15;0.63;;;25.80;99.90;;;;;;5046873;28;20205;-83
2023/01/10 01:12:48;;;;;;;2.35;0.70;;;25.80;99.90;;;;;;5049923;28;20231;-89
2023/01/10 01:15:19;;;;;;;1.33;0.60;;;25.80;99.90;;;;;;5048840;28;20227;-88
2023/01/10 01:17:50;;;;;;;2.50;0.73;;;25.90;99.90;;;;;;5050888;28;20284;-89
2023/01/10 01:20:21;;;;;;;1.33;0.60;;;26.00;99.90;;;;;;5048480;28;20235;-88
2023/01/10 01:22:53;;;;;;;2.22;0.73;;;25.90;99.90;;;;;;5050107;28;20231;-86
2023/01/10 01:25:30;;;;;;;2.67;0.60;;;25.90;99.90;;;;;;5053102;28;20284;-87
2023/01/10 01:28:01;;;;;;;1.35;0.77;;;25.90;99.90;;;;;;5040269;28;20750;-86
2023/01/10 01:30:31;;;;;;;2.08;0.80;;;25.90;99.90;;;;;;5049795;28;20212;-89
2023/01/10 01:33:02;;;;;;;2.85;1.05;;;26.00;99.90;;;;;;5048445;28;20287;-87
2023/01/10 01:35:33;;;;;;;2.63;0.98;;;26.00;99.90;;;;;;5047960;28;20200;-88
2023/01/10 01:38:05;;;;;;;3.63;0.90;;;26.00;99.90;;;;;;5048810;28;20233;-87
2023/01/10 01:40:40;;;;;;;2.15;0.80;;;26.00;99.90;;;;;;5048277;28;20250;-89
2023/01/10 01:43:26;;;;;;;1.67;0.70;;;26.00;99.90;;;;;;5044549;28;20216;-84
2023/01/10 01:45:59;;;;;;;3.40;0.90;;;25.80;99.90;;;;;;5045787;28;20218;-88
2023/01/10 01:48:35;;;;;;;3.92;0.88;;;25.90;99.90;;;;;;5046373;28;20336;-88
2023/01/10 01:51:12;;;;;;;2.50;0.80;;;25.90;99.90;;;;;;5049758;28;20223;-87
2023/01/10 01:53:46;;;;;;;3.20;0.90;;;26.00;99.90;;;;;;5047123;28;20291;-86
2023/01/10 01:56:24;;;;;;;3.67;0.90;;;26.00;99.90;;;;;;5049726;28;20290;-85
2023/01/10 01:58:58;;;;;;;3.50;0.85;;;25.90;99.90;;;;;;5050877;28;20205;-87
2023/01/10 02:01:30;;;;;;;3.65;1.10;;;25.80;99.90;;;;;;5052772;28;20196;-88
2023/01/10 02:04:07;;;;;;;3.35;1.00;;;25.90;99.90;;;;;;5050384;28;20228;-90
2023/01/10 02:06:40;;;;;;;3.53;0.88;;;26.00;99.90;;;;;;5049458;28;20200;-89
2023/01/10 02:09:17;;;;;;;2.05;0.70;;;26.10;99.90;;;;;;5052973;28;20374;-90
2023/01/10 02:11:51;;;;;;;2.67;0.80;;;26.10;99.90;;;;;;5053115;28;20590;-94
2023/01/10 02:14:24;;;;;;;5.15;1.17;;;26.30;99.90;;;;;;5050960;28;20228;-90
2023/01/10 02:16:55;;;;;;;2.75;1.00;;;26.10;99.90;;;;;;5050501;28;20188;-89
2023/01/10 02:19:31;;;;;;;2.42;1.00;;;26.20;99.90;;;;;;5050655;28;20294;-90
2023/01/10 02:22:29;;;;;;;1.92;0.90;;;26.30;99.90;;;;;;5051350;28;20201;-86
2023/01/10 02:25:37;;;;;;;2.50;0.90;;;26.30;99.90;;;;;;5049225;28;20203;-87
2023/01/10 02:28:32;;;;;;;1.80;0.70;;;26.30;99.90;;;;;;5061790;28;20205;-88
2023/01/10 02:31:28;;;;;;;1.73;0.70;;;26.40;99.90;;;;;;5046339;28;20201;-87
2023/01/10 02:34:11;;;;;;;1.83;0.82;;;26.40;99.90;;;;;;5045106;28;20217;-87
2023/01/10 02:36:52;;;;;;;2.47;0.60;;;26.30;99.90;;;;;;5048163;28;20216;-87
2023/01/10 02:39:30;;;;;;;2.72;1.00;;;26.30;99.90;;;;;;5047181;28;20935;-88
2023/01/10 02:42:05;;;;;;;1.60;0.60;;;26.30;99.90;;;;;;5044790;28;20206;-88
2023/01/10 02:44:42;;;;;;;1.27;0.60;;;26.20;99.90;;;;;;5043152;28;20649;-88
2023/01/10 02:47:14;;;;;;;2.15;0.70;;;26.10;99.90;;;;;;5044690;28;20201;-85
2023/01/10 02:49:55;;;;;;;2.72;0.73;;;26.10;99.90;;;;;;5045312;28;20324;-87
2023/01/10 02:52:32;;;;;;;1.58;0.60;;;26.20;99.90;;;;;;5054681;28;20632;-87
2023/01/10 02:55:05;;;;;;;0.95;0.50;;;26.30;99.90;;;;;;5048153;28;20197;-88
2023/01/10 02:57:49;;;;;;;2.00;0.70;;;26.40;99.90;;;;;;5064344;28;20312;-85
2023/01/10 03:00:47;;;;;;;2.35;0.77;;;26.40;99.90;;;;;;5066275;28;20268;-86
2023/01/10 03:03:32;;;;;;;1.10;0.47;;;26.50;99.90;;;;;;5060272;28;20315;-88
2023/01/10 03:06:20;;;;;;;3.72;0.90;;;26.70;99.90;;;;;;5046126;28;20295;-86
2023/01/10 03:08:58;;;;;;;1.10;0.88;;;26.80;99.90;;;;;;5046286;28;20216;-86
2023/01/10 03:11:41;;;;;;;1.63;0.55;;;26.90;99.90;;;;;;5046949;28;20211;-85
2023/01/10 03:14:18;;;;;;;3.40;0.60;;;27.00;99.90;;;;;;5046839;28;20200;-86
2023/01/10 03:16:54;;;;;;;2.47;0.73;;;27.10;99.90;;;;;;5045056;28;20188;-85
2023/01/10 03:19:29;;;;;;;2.45;0.80;;;26.90;99.90;;;;;;5045284;28;20192;-86
2023/01/10 03:22:04;;;;;;;1.52;0.70;;;26.80;99.90;;;;;;5048089;28;20193;-87
2023/01/10 03:24:38;;;;;;;2.15;0.70;;;26.80;99.90;;;;;;5046820;28;20192;-86
2023/01/10 03:27:14;;;;;;;1.55;0.70;;;26.90;99.90;;;;;;5049536;28;20287;-87
2023/01/10 03:29:52;;;;;;;2.22;0.60;;;26.90;99.90;;;;;;5066614;28;20222;-82
2023/01/10 03:32:29;;;;;;;3.30;0.50;;;27.00;99.90;;;;;;5045175;28;20307;-87
2023/01/10 03:35:04;;;;;;;4.18;0.70;;;27.10;99.90;;;;;;5042742;28;20203;-85
2023/01/10 03:37:39;;;;;;;4.18;0.60;;;27.10;99.90;;;;;;5046556;28;20232;-86
2023/01/10 03:40:18;;;;;;;1.50;0.70;;;27.10;99.90;;;;;;5046358;28;20217;-85
2023/01/10 03:45:47;;;;;;;1.67;0.60;;;27.10;99.90;;;;;;5047860;28;20591;-87
2023/01/10 03:48:19;;;;;;;1.83;0.70;;;27.10;99.90;;;;;;5048183;28;20322;-86
2023/01/10 03:50:51;;;;;;;1.92;0.50;;;27.00;99.90;;;;;;5045288;28;20220;-85
2023/01/10 03:53:24;;;;;;;1.73;0.75;;;27.00;99.90;;;;;;5050672;28;20201;-85
2023/01/10 03:55:57;;;;;;;3.00;0.60;;;26.90;99.90;;;;;;5053322;28;20199;-85
2023/01/10 03:58:27;;;;;;;3.83;0.52;;;27.00;99.90;;;;;;5053957;28;20203;-85
2023/01/10 04:00:58;;;;;;;1.23;0.50;;;27.00;99.90;;;;;;5050381;28;20580;-87
2023/01/10 04:03:29;;;;;;;2.03;0.55;;;27.00;99.90;;;;;;5054281;28;20715;-84
2023/01/10 04:06:00;;;;;;;1.20;0.50;;;27.00;99.90;;;;;;5049699;28;20216;-85
2023/01/10 04:08:33;;;;;;;1.60;0.40;;;27.00;99.90;;;;;;5052375;28;20723;-86
2023/01/10 04:11:05;;;;;;;1.90;0.50;;;27.00;99.90;;;;;;5050181;28;20216;-88
2023/01/10 04:13:36;;;;;;;1.92;0.60;;;27.10;99.90;;;;;;5050599;28;20201;-86
2023/01/10 04:16:07;;;;;;;3.53;0.70;;;27.10;99.90;;;;;;5054010;28;20214;-86
2023/01/10 04:18:38;;;;;;;1.20;0.50;;;27.20;99.90;;;;;;5053003;28;20770;-88
2023/01/10 04:21:09;;;;;;;1.92;0.60;;;27.10;99.90;;;;;;5048136;28;20204;-80
2023/01/10 04:23:42;;;;;;;2.17;0.50;;;27.20;99.90;;;;;;5044821;28;20860;-85
2023/01/10 04:26:13;;;;;;;0.85;0.50;;;27.20;99.90;;;;;;5050235;28;20220;-88
2023/01/10 04:28:44;;;;;;;2.42;0.60;;;27.10;99.90;;;;;;5052200;28;20207;-87
2023/01/10 04:31:14;;;;;;;4.32;0.90;;;27.10;99.90;;;;;;5056628;28;20292;-87
2023/01/10 04:33:48;;;;;;;2.90;0.65;;;27.20;99.90;;;;;;5068272;28;20220;-88
2023/01/10 04:36:19;;;;;;;2.20;0.68;;;27.20;99.90;;;;;;5048072;28;20227;-87
2023/01/10 04:38:54;;;;;;;2.28;0.60;;;27.40;99.90;;;;;;5050765;28;20239;-85
2023/01/10 04:41:25;;;;;;;3.63;0.60;;;27.50;99.90;;;;;;5053568;28;20283;-87
2023/01/10 04:43:57;;;;;;;1.52;0.60;;;27.50;99.90;;;;;;5049743;28;20207;-88
2023/01/10 04:46:28;;;;;;;1.50;0.55;;;27.70;99.90;;;;;;5050316;28;20694;-86
2023/01/10 04:49:00;;;;;;;1.20;0.52;;;27.60;99.90;;;;;;5047121;28;20204;-88
2023/01/10 04:51:31;;;;;;;1.55;0.50;;;27.70;99.90;;;;;;5045389;28;20655;-87
2023/01/10 04:54:04;;;;;;;2.75;0.70;;;27.80;99.90;;;;;;5047321;28;20292;-86
2023/01/10 04:56:36;;;;;;;3.20;0.80;;;27.80;99.90;;;;;;5048319;28;20197;-86
2023/01/10 04:59:09;;;;;;;1.73;0.60;;;27.80;99.90;;;;;;5047632;28;20678;-86
2023/01/10 05:01:40;;;;;;;2.53;0.70;;;27.90;99.90;;;;;;5048665;28;20319;-87
2023/01/10 05:04:18;;;;;;;3.35;0.50;;;28.00;99.90;;;;;;5045246;28;20335;-87
2023/01/10 05:06:49;;;;;;;4.03;0.70;;;28.10;99.90;;;;;;5046967;28;20295;-87
2023/01/10 05:09:22;;;;;;;1.98;0.75;;;27.90;99.90;;;;;;5046556;28;20220;-86
2023/01/10 05:11:56;;;;;;;2.55;0.63;;;28.00;99.90;;;;;;5048442;28;20275;-87
2023/01/10 05:14:27;;;;;;;2.60;0.50;;;28.20;99.90;;;;;;5047886;28;20199;-87
2023/01/10 05:16:58;;;;;;;2.17;0.73;;;28.30;99.90;;;;;;5046230;28;20220;-87
2023/01/10 05:19:29;;;;;;;2.88;0.60;;;28.40;99.90;;;;;;5047353;28;20212;-86
2023/01/10 05:22:00;;;;;;;1.88;0.60;;;28.50;99.90;;;;;;5049079;28;20246;-87
2023/01/10 05:24:34;;;;;;;3.53;0.70;;;28.50;99.90;;;;;;5051992;28;20204;-86
2023/01/10 05:27:05;;;;;;;2.03;0.68;;;28.60;99.90;;;;;;5054754;28;20201;-87
2023/01/10 05:29:40;;;;;;;2.38;0.63;;;28.80;99.90;;;;;;5051229;28;20223;-87
2023/01/10 05:32:11;;;;;;;2.22;0.70;;;28.90;99.90;;;;;;5051814;28;20206;-86
2023/01/10 05:34:42;;;;;;;1.30;0.55;;;28.90;99.90;;;;;;5053271;28;20284;-87
2023/01/10 05:37:13;;;;;;;4.57;0.60;;;29.00;99.90;;;;;;5062897;28;21080;-87
2023/01/10 05:39:47;;;;;;;1.70;0.50;;;29.10;99.90;;;;;;5050506;28;20205;-87
2023/01/10 05:42:18;;;;;;;2.50;0.40;;;29.20;99.90;;;;;;5050157;28;20193;-86
2023/01/10 05:44:50;;;;;;;0.77;0.30;;;29.40;99.90;;;;;;5049984;28;20196;-87
2023/01/10 05:47:21;;;;;;;1.38;0.52;;;29.40;99.90;;;;;;5052208;28;20196;-87
2023/01/10 05:49:52;;;;;;;2.70;0.50;;;29.40;99.90;;;;;;5053154;28;20256;-87
2023/01/10 05:52:23;;;;;;;1.17;0.52;;;29.40;99.90;;;;;;5050443;28;20204;-88
2023/01/10 05:54:57;;;;;;;1.45;0.40;;;29.60;99.90;;;;;;5052363;28;20199;-87
2023/01/10 05:57:28;;;;;;;1.75;0.50;;;29.80;99.90;;;;;;5050576;28;20234;-87
2023/01/10 06:00:02;;;;;;;1.67;0.50;;;29.90;99.90;;;;;;5049293;28;20236;-87
2023/01/10 06:02:37;;;;;;;2.47;0.40;;;30.10;99.90;;;;;;5034289;28;20200;-89
2023/01/10 06:05:12;;;;;;;1.42;0.40;;;30.20;99.90;;;;;;5049511;28;20193;-89
2023/01/10 06:07:46;;;;;;;1.67;0.40;;;30.40;99.90;;;;;;5050257;28;20291;-87
2023/01/10 06:10:23;;;;;;;4.32;0.55;;;30.60;99.80;;;;;;5049882;28;20224;-88
2023/01/10 06:12:56;;;;;;;1.38;0.40;;;30.70;97.50;;;;;;5050386;28;20204;-87
2023/01/10 06:15:27;;;;;;;1.88;0.40;;;30.50;98.60;;;;;;5048810;28;20254;-88
2023/01/10 06:17:59;;;;;;;1.40;0.38;;;30.50;98.00;;;;;;5049455;28;20228;-87
2023/01/10 06:20:33;;;;;;;1.55;0.35;;;30.50;97.10;;;;;;5047387;28;20200;-87
2023/01/10 06:23:04;;;;;;;1.80;0.50;;;30.70;97.90;;;;;;5049867;28;20214;-87
2023/01/10 06:25:39;;;;;;;2.85;0.50;;;30.90;94.60;;;;;;5052120;28;20204;-88
2023/01/10 06:28:13;;;;;;;1.27;0.50;;;30.90;93.50;;;;;;5051181;28;20204;-88
2023/01/10 06:30:45;;;;;;;2.78;0.95;;;30.70;93.90;;;;;;5049793;28;20223;-88
2023/01/10 06:33:17;;;;;;;1.45;0.40;;;30.50;94.00;;;;;;5048385;28;20204;-87
2023/01/10 06:35:48;;;;;;;2.00;1.00;;;30.40;96.20;;;;;;5048743;28;20222;-87
2023/01/10 06:38:19;;;;;;;1.83;0.60;;;30.70;93.70;;;;;;5060940;28;20228;-87
2023/01/10 06:40:53;;;;;;;0.90;0.50;;;30.80;94.10;;;;;;5069358;28;20215;-87
2023/01/10 06:43:24;;;;;;;2.13;0.50;;;31.00;93.20;;;;;;5045477;28;20207;-88
2023/01/10 06:45:58;;;;;;;2.10;0.85;;;31.30;92.50;;;;;;5046190;28;20201;-87
2023/01/10 06:48:29;;;;;;;2.08;0.50;;;31.30;94.30;;;;;;5045203;28;20279;-87
2023/01/10 06:51:00;;;;;;;2.13;0.55;;;31.90;91.80;;;;;;5044615;28;20225;-88
2023/01/10 06:53:31;;;;;;;2.00;0.80;;;32.00;92.00;;;;;;5045666;28;20193;-88
2023/01/10 06:56:04;;;;;;;1.50;0.50;;;32.10;90.40;;;;;;5047040;28;20659;-89
2023/01/10 06:58:37;;;;;;;1.05;0.50;;;32.30;89.70;;;;;;5045162;28;20211;-89
2023/01/10 07:01:08;;;;;;;2.17;0.50;;;32.60;86.40;;;;;;5045414;28;20247;-88
2023/01/10 07:03:40;;;;;;;1.05;0.30;;;32.70;86.00;;;;;;5045921;28;20224;-88
2023/01/10 07:06:11;;;;;;;0.90;0.50;;;32.90;84.50;;;;;;5047065;28;20277;-88
2023/01/10 07:08:43;;;;;;;1.23;0.30;;;33.20;79.30;;;;;;5046508;28;20199;-87
2023/01/10 07:11:17;;;;;;;2.35;0.50;;;33.40;76.10;;;;;;5044893;28;20307;-87
2023/01/10 07:13:48;;;;;;;7.97;3.25;;;33.30;77.60;;;;;;5051203;28;20671;-87
2023/01/10 07:16:23;;;;;;;1.38;0.47;;;33.30;75.30;;;;;;5051085;28;20218;-88
2023/01/10 07:18:54;;;;;;;1.27;0.40;;;33.60;73.20;;;;;;5052300;28;20236;-88
2023/01/10 07:21:25;;;;;;;3.80;0.85;;;33.80;71.80;;;;;;5048811;28;20755;-89
2023/01/10 07:24:00;;;;;;;1.75;0.50;;;34.00;68.20;;;;;;5047999;28;20211;-89
2023/01/10 07:26:33;;;;;;;2.05;0.52;;;33.90;70.30;;;;;;5051124;28;20226;-88
2023/01/10 07:29:04;;;;;;;2.95;0.70;;;33.70;69.60;;;;;;5049612;28;20206;-89
2023/01/10 07:31:35;;;;;;;1.42;0.57;;;34.10;69.10;;;;;;5049779;28;20268;-89
2023/01/10 07:34:06;;;;;;;4.00;0.80;;;34.10;67.30;;;;;;5049870;28;20205;-87
2023/01/10 07:36:37;;;;;;;2.10;0.80;;;33.60;69.20;;;;;;5049415;28;20247;-89
2023/01/10 07:39:08;;;;;;;2.00;0.52;;;33.80;67.80;;;;;;5048564;28;20254;-80
2023/01/10 07:41:42;;;;;;;2.15;0.82;;;33.50;67.90;;;;;;5050995;28;20200;-90
2023/01/10 07:44:13;;;;;;;1.65;0.55;;;32.70;69.70;;;;;;5071675;28;20202;-85
2023/01/10 07:46:44;;;;;;;2.45;0.60;;;32.40;71.10;;;;;;5056072;28;20292;-87
2023/01/10 07:49:15;;;;;;;1.63;0.70;;;32.20;71.70;;;;;;5051804;28;20200;-86
2023/01/10 07:51:47;;;;;;;1.15;0.50;;;31.80;74.40;;;;;;5045840;28;20490;-88
2023/01/10 07:54:18;;;;;;;3.80;0.70;;;31.30;77.10;;;;;;5052981;28;20606;-87
2023/01/10 07:56:51;;;;;;;1.38;0.50;;;30.90;79.90;;;;;;5048234;28;20211;-87
2023/01/10 07:59:25;;;;;;;1.95;0.77;;;30.30;83.70;;;;;;5051349;28;20204;-86
2023/01/10 08:01:56;;;;;;;1.27;0.50;;;30.20;88.40;;;;;;5051956;28;20206;-87
2023/01/10 08:04:28;;;;;;;0.85;0.30;;;30.20;87.40;;;;;;5049815;28;20208;-86
2023/01/10 08:07:00;;;;;;;2.00;0.60;;;29.90;88.90;;;;;;5050158;28;20250;-86
2023/01/10 08:09:31;;;;;;;4.03;0.70;;;29.70;90.30;;;;;;5050603;28;20226;-87
2023/01/10 08:12:04;;;;;;;2.85;0.55;;;29.30;92.10;;;;;;5049541;28;20597;-86
2023/01/10 08:14:35;;;;;;;0.95;0.55;;;29.00;94.20;;;;;;5054531;28;20211;-85
2023/01/10 08:17:06;;;;;;;1.77;0.75;;;28.70;95.00;;;;;;5053158;28;20219;-87
2023/01/10 08:19:38;;;;;;;3.10;0.80;;;28.30;96.60;;;;;;5054035;28;20193;-87
2023/01/10 08:22:09;;;;;;;2.95;0.80;;;28.00;99.90;;;;;;5051826;28;20719;-86
2023/01/10 08:24:42;;;;;;;3.22;0.88;;;27.80;99.90;;;;;;5052042;28;20688;-87
2023/01/10 08:27:16;;;;;;;1.17;0.38;;;27.60;99.90;;;;;;5050976;28;20196;-87
2023/01/10 08:29:47;;;;;;;1.50;0.60;;;27.40;99.90;;;;;;5054647;28;20227;-87
2023/01/10 08:32:18;;;;;;;0.95;0.60;;;27.30;99.90;;;;;;5050675;28;20224;-88
2023/01/10 08:34:53;;;;;;;1.95;0.60;;;27.00;99.90;;;;;;5054157;28;20292;-88
2023/01/10 08:37:24;;;;;;;1.05;0.40;;;26.90;99.90;;;;;;5048130;28;20225;-86
2023/01/10 08:39:57;;;;;;;1.58;0.63;;;26.70;99.90;;;;;;5052971;28;20422;-86
2023/01/10 08:42:30;;;;;;;2.17;0.50;;;26.50;99.90;;;;;;5052119;28;20211;-87
2023/01/10 08:45:01;;;;;;;1.73;0.57;;;26.30;99.90;;;;;;5033354;28;20197;-86
2023/01/10 08:47:33;;;;;;;2.25;0.60;;;26.20;99.90;;;;;;5069333;28;20249;-86
2023/01/10 08:50:04;;;;;;;2.35;0.70;;;26.00;99.90;;;;;;5054907;28;20204;-87
2023/01/10 08:52:36;;;;;;;2.35;0.73;;;25.90;99.90;;;;;;5048351;28;20228;-88
2023/01/10 08:55:09;;;;;;;1.98;0.82;;;25.90;99.90;;;;;;5050735;28;20224;-90
2023/01/10 08:57:44;;;;;;;1.60;0.65;;;25.80;99.90;;;;;;5050824;28;20575;-89
2023/01/10 09:00:16;;;;;;;2.67;0.80;;;25.70;99.90;;;;;;5049892;28;20184;-89
2023/01/10 09:02:48;;;;;;;2.75;1.00;;;25.60;99.90;;;;;;5050798;28;20210;-89
2023/01/10 09:05:19;;;;;;;3.00;1.20;;;25.50;99.90;;;;;;5045793;28;20347;-90
2023/01/10 09:08:06;;;;;;;3.20;1.08;;;25.50;99.90;;;;;;5055443;28;20199;-90
2023/01/10 09:10:37;;;;;;;3.03;1.20;;;25.40;99.90;;;;;;5065107;28;20223;-89
2023/01/10 09:13:23;;;;;;;3.90;0.90;;;25.40;99.90;;;;;;5063642;28;20204;-90
2023/01/10 09:15:55;;;;;;;0.85;0.65;;;25.30;99.90;;;;;;5057682;28;20196;-90
2023/01/10 09:18:30;;;;;;;4.78;0.80;;;25.30;99.90;;;;;;5057071;28;20863;-90
2023/01/10 09:21:01;;;;;;;2.08;0.50;;;25.30;99.90;;;;;;5057100;28;20191;-90
2023/01/10 09:23:32;;;;;;;1.75;0.82;;;25.20;99.90;;;;;;5051842;28;20201;-92
2023/01/10 09:26:09;;;;;;;1.63;0.40;;;25.10;99.90;;;;;;5054159;28;20207;-91
2023/01/10 09:28:57;;;;;;;2.75;0.82;;;25.20;99.90;;;;;;5049688;28;20319;-91
2023/01/10 09:31:35;;;;;;;1.65;0.60;;;25.00;99.90;;;;;;5050638;28;20787;-91
2023/01/10 09:34:16;;;;;;;1.73;0.50;;;25.00;99.90;;;;;;5052544;28;20220;-90
2023/01/10 09:36:57;;;;;;;1.92;0.60;;;25.00;99.90;;;;;;5059412;28;20622;-91
2023/01/10 09:39:31;;;;;;;2.22;0.70;;;24.90;99.90;;;;;;5017028;28;20205;-90
2023/01/10 09:42:30;;;;;;;4.47;0.90;;;24.90;99.90;;;;;;5015105;28;20224;-90
2023/01/10 09:45:42;;;;;;;1.40;0.90;;;24.80;99.90;;;;;;5023243;28;20226;-89
2023/01/10 09:48:32;;;;;;;2.97;1.20;;;24.80;99.90;;;;;;5013073;28;20649;-91
2023/01/10 09:51:19;;;;;;;2.13;1.10;;;24.70;99.90;;;;;;5017307;28;20244;-91
2023/01/10 09:53:57;;;;;;;3.42;0.70;;;24.70;99.90;;;;;;5014775;28;20209;-89
2023/01/10 09:59:39;;;;;;;2.80;0.85;;;24.60;99.90;;;;;;4938563;29;20244;-89
2023/01/10 10:02:30;;;;;;;4.15;1.08;;;24.60;99.90;;;;;;4988901;28;20210;-88
2023/01/10 10:05:15;;;;;;;0.80;0.50;;;24.50;99.90;;;;;;5025212;28;20202;-88
2023/01/10 10:07:46;;;;;;;2.95;0.50;;;24.50;99.90;;;;;;5015632;28;20217;-89
2023/01/10 10:10:27;;;;;;;2.85;0.80;;;24.50;99.90;;;;;;5023849;28;20273;-90
2023/01/10 10:13:21;;;;;;;1.73;0.60;;;24.50;99.90;;;;;;5024901;28;20267;-88
2023/01/10 10:16:04;;;;;;;3.03;0.70;;;24.50;99.90;;;;;;5012854;28;20214;-89
2023/01/10 10:18:52;;;;;;;3.03;0.85;;;24.60;99.90;;;;;;5017886;28;20271;-91
2023/01/10 10:21:40;;;;;;;1.00;0.60;;;24.50;99.90;;;;;;5025342;28;20269;-90
2023/01/10 10:24:41;;;;;;;2.58;0.75;;;24.50;99.90;;;;;;5016557;28;20234;-88
2023/01/10 10:27:23;;;;;;;2.42;0.80;;;24.50;99.90;;;;;;5015195;28;20216;-90
2023/01/10 10:30:22;;;;;;;4.28;0.95;;;24.40;99.90;;;;;;5015334;28;20202;-91
2023/01/10 10:33:29;;;;;;;2.20;0.60;;;24.40;99.90;;;;;;5015769;28;20275;-90
2023/01/10 10:36:11;;;;;;;5.20;1.15;;;24.30;99.90;;;;;;5016837;28;20241;-87
2023/01/10 10:38:56;;;;;;;3.05;0.70;;;24.30;99.90;;;;;;5046707;28;20236;-90
2023/01/10 10:41:38;;;;;;;3.92;0.80;;;24.30;99.90;;;;;;5054470;28;20204;-90
2023/01/10 10:44:25;;;;;;;1.88;0.65;;;24.30;99.90;;;;;;5057212;28;20192;-92
2023/01/10 10:47:03;;;;;;;3.22;0.63;;;24.30;99.90;;;;;;5057283;28;20189;-87
2023/01/10 10:49:47;;;;;;;1.75;0.70;;;24.30;99.90;;;;;;5055712;28;20192;-88
2023/01/10 10:52:38;;;;;;;3.00;0.70;;;24.30;99.90;;;;;;5054365;28;20224;-90
2023/01/10 10:55:31;;;;;;;2.65;0.60;;;24.20;99.90;;;;;;5058753;28;20337;-90
2023/01/10 10:58:06;;;;;;;0.63;0.47;;;24.10;99.90;;;;;;5053932;28;20594;-88
2023/01/10 11:00:38;;;;;;;2.13;0.63;;;24.20;99.90;;;;;;5054845;28;21069;-88
2023/01/10 11:03:22;;;;;;;2.88;0.70;;;24.20;99.90;;;;;;5055386;28;20219;-88
2023/01/10 11:05:54;;;;;;;1.95;0.70;;;24.20;99.90;;;;;;5057347;28;20204;-89
2023/01/10 11:08:25;;;;;;;2.53;0.65;;;24.10;99.90;;;;;;5058231;28;20196;-89
2023/01/10 11:11:00;;;;;;;2.03;0.52;;;24.20;99.90;;;;;;5070549;28;20253;-90
2023/01/10 11:13:42;;;;;;;1.88;0.70;;;24.20;99.90;;;;;;5048341;28;20567;-88
2023/01/10 11:16:27;;;;;;;1.65;0.85;;;24.20;99.90;;;;;;5054035;28;20188;-89
2023/01/10 11:19:22;;;;;;;1.52;0.60;;;24.20;99.90;;;;;;5055892;28;20200;-90
2023/01/10 11:22:00;;;;;;;1.58;0.80;;;24.20;99.90;;;;;;5048420;28;20244;-88
2023/01/10 11:24:35;;;;;;;3.92;0.80;;;24.30;99.90;;;;;;5051348;28;20219;-89
2023/01/10 11:27:20;;;;;;;1.83;0.70;;;24.30;99.90;;;;;;5053044;28;20202;-88
2023/01/10 11:29:55;;;;;;;2.17;0.50;;;24.20;99.90;;;;;;5053537;28;20201;-90
2023/01/10 11:32:37;;;;;;;2.45;0.70;;;24.20;99.90;;;;;;5055960;28;20219;-90
2023/01/10 11:35:19;;;;;;;1.63;0.50;;;24.20;99.90;;;;;;5054067;28;20296;-88
2023/01/10 11:38:03;;;;;;;2.63;0.55;;;24.20;99.90;;;;;;5052858;28;20228;-87
2023/01/10 11:40:39;;;;;;;1.27;0.40;;;24.20;99.90;;;;;;5052779;28;20284;-91
2023/01/10 11:43:33;;;;;;;2.55;0.40;;;24.20;99.90;;;;;;5053782;28;20205;-88
2023/01/10 11:46:07;;;;;;;1.27;0.50;;;24.20;99.90;;;;;;5050432;28;20243;-89
2023/01/10 11:48:46;;;;;;;1.88;0.50;;;24.20;99.90;;;;;;5043775;28;20200;-89
2023/01/10 11:51:28;;;;;;;2.28;0.57;;;24.20;99.90;;;;;;5049906;28;20234;-89
2023/01/10 11:54:02;;;;;;;3.55;0.65;;;24.20;99.90;;;;;;5057178;28;20715;-90
2023/01/10 11:56:36;;;;;;;1.30;0.40;;;24.20;99.90;;;;;;5050914;28;20624;-90
2023/01/10 11:59:15;;;;;;;2.28;0.47;;;24.20;99.90;;;;;;5052895;28;20232;-91
2023/01/10 12:01:51;;;;;;;1.73;0.50;;;24.20;99.90;;;;;;5052663;28;20196;-89
2023/01/10 12:04:25;;;;;;;5.75;0.60;;;24.30;99.90;;;;;;5055979;28;20569;-90
2023/01/10 12:07:00;;;;;;;0.90;0.43;;;24.20;99.90;;;;;;5057032;28;20199;-92
2023/01/10 12:09:41;;;;;;;0.90;0.50;;;24.20;99.90;;;;;;5061005;28;20192;-85
2023/01/10 12:12:21;;;;;;;3.00;0.60;;;24.20;99.90;;;;;;5071011;28;20275;-87
2023/01/10 12:14:55;;;;;;;1.67;0.60;;;24.20;99.90;;;;;;5064465;28;20286;-90
2023/01/10 12:17:29;;;;;;;1.50;0.80;;;24.20;99.90;;;;;;5035158;28;20269;-90
2023/01/10 12:20:02;;;;;;;2.65;0.60;;;24.20;99.90;;;;;;5054874;28;20196;-91
2023/01/10 12:22:35;;;;;;;1.45;0.70;;;24.20;99.90;;;;;;5059515;28;20192;-89
2023/01/10 12:25:16;;;;;;;1.88;0.50;;;24.10;99.90;;;;;;5054481;28;20204;-90
2023/01/10 12:27:49;;;;;;;2.45;0.50;;;24.10;99.90;;;;;;5050953;28;20199;-89
2023/01/10 12:30:32;;;;;;;3.28;0.50;;;24.10;99.90;;;;;;5053250;28;20189;-90
2023/01/10 12:33:08;;;;;;;1.45;0.40;;;24.10;99.90;;;;;;5049214;28;20640;-91
2023/01/10 12:35:45;;;;;;;2.10;0.50;;;24.10;99.90;;;;;;5051117;28;20196;-88
2023/01/10 12:44:09;;;;;;;0.60;0.40;;;24.10;99.90;;;;;;5042428;28;20216;-89
2023/01/10 12:44:13;;;;;;;2.80;0.60;;;24.10;99.90;;;;;;5050576;28;20225;-90
2023/01/10 12:46:51;;;;;;;2.03;0.60;;;24.10;99.90;;;;;;5051141;28;20278;-90
2023/01/10 12:49:26;;;;;;;1.52;0.57;;;24.10;99.90;;;;;;5050514;28;20198;-88
2023/01/10 12:52:01;;;;;;;1.50;0.40;;;24.10;99.90;;;;;;5045556;28;20228;-90
2023/01/10 12:54:33;;;;;;;1.58;0.40;;;24.10;99.90;;;;;;5044570;28;20201;-92
2023/01/10 12:57:09;;;;;;;1.20;0.45;;;24.10;99.90;;;;;;5050896;28;20220;-90
2023/01/10 12:59:45;;;;;;;1.50;0.50;;;24.10;99.90;;;;;;5049795;28;20224;-91
2023/01/10 13:02:22;;;;;;;2.30;0.57;;;24.10;99.90;;;;;;5052304;28;20226;-90
2023/01/10 13:04:58;;;;;;;1.95;0.50;;;24.10;99.90;;;;;;5054865;28;20184;-89
2023/01/10 13:07:33;;;;;;;1.65;0.50;;;24.10;99.90;;;;;;5050598;28;20282;-92
2023/01/10 13:10:07;;;;;;;0.98;0.32;;;24.10;99.90;;;;;;5064234;28;20192;-92
2023/01/10 13:12:44;;;;;;;0.43;0.32;;;24.10;99.90;;;;;;5053767;28;20220;-92
2023/01/10 13:15:22;;;;;;;2.13;0.60;;;24.10;99.90;;;;;;5053390;28;20214;-93
2023/01/10 13:18:01;;;;;;;1.60;0.47;;;24.00;99.90;;;;;;5050191;28;20196;-92
2023/01/10 13:20:39;;;;;;;2.05;0.50;;;24.00;99.90;;;;;;5049747;28;20216;-92
2023/01/10 13:23:28;;;;;;;3.30;0.65;;;24.10;99.90;;;;;;5128705;22;20314;-91
2023/01/10 13:26:07;;;;;;;0.93;0.40;;;24.10;99.90;;;;;;5076783;28;20206;-93
2023/01/10 13:28:40;;;;;;;1.77;0.50;;;24.00;99.90;;;;;;5072419;28;20198;-93
2023/01/10 13:31:25;;;;;;;2.00;0.60;;;24.00;99.90;;;;;;5071430;28;20235;-90
2023/01/10 13:34:01;;;;;;;2.38;0.43;;;24.00;99.90;;;;;;5066616;28;20306;-89
2023/01/10 13:36:36;;;;;;;2.08;0.60;;;24.00;99.90;;;;;;5065945;28;20339;-90
2023/01/10 13:39:10;;;;;;;2.15;0.60;;;24.00;99.90;;;;;;5060818;28;20701;-91
2023/01/10 13:45:24;;;;;;;1.70;0.50;;;24.00;99.90;;;;;;5062097;28;20211;-92
2023/01/10 13:48:29;;;;;;;3.75;0.70;;;24.00;99.90;;;;;;5063993;28;20216;-94
2023/01/10 13:51:19;;;;;;;1.42;0.50;;;24.00;99.90;;;;;;5067615;28;20291;-93